sensor_id;sensor_type;location;lat;lon;timestamp;pressure;altitude;pressure_sealevel;temperature;humidity
37132;BME280;23035;50.032;21.978;2023-02-01T00:01:17;65249.59;;;0.76;100.00
37132;BME280;23035;50.032;21.978;2023-02-01T00:06:23;65276.84;;;1.05;100.00
37132;BME280;23035;50.032;21.978;2023-02-01T00:11:28;65203.44;;;0.35;100.00
37132;BME280;23035;50.032;21.978;2023-02-01T00:16:33;65208.03;;;0.34;100.00
37132;BME280;23035;50.032;21.978;2023-02-01T00:21:39;65224.41;;;0.47;100.00
37132;BME280;23035;50.032;21.978;2023-02-01T00:26:45;65270.34;;;0.96;100.00
37132;BME280;23035;50.032;21.978;2023-02-01T00:31:50;65203.97;;;0.35;100.00
37132;BME280;23035;50.032;21.978;2023-02-01T00:36:57;65233.44;;;0.56;100.00
37132;BME280;23035;50.032;21.978;2023-02-01T00:42:03;65207.91;;;0.32;100.00
37132;BME280;23035;50.032;21.978;2023-02-01T00:47:08;65213.31;;;0.39;100.00
37132;BME280;23035;50.032;21.978;2023-02-01T00:52:14;65204.31;;;0.31;100.00
37132;BME280;23035;50.032;21.978;2023-02-01T00:57:19;65164.53;;;-0.05;100.00
37132;BME280;23035;50.032;21.978;2023-02-01T01:02:25;65257.50;;;0.81;100.00
37132;BME280;23035;50.032;21.978;2023-02-01T01:07:32;65223.13;;;0.53;100.00
37132;BME280;23035;50.032;21.978;2023-02-01T01:12:37;65236.41;;;0.66;100.00
37132;BME280;23035;50.032;21.978;2023-02-01T01:17:41;65244.28;;;0.71;100.00
37132;BME280;23035;50.032;21.978;2023-02-01T01:22:47;65326.69;;;1.48;100.00
37132;BME280;23035;50.032;21.978;2023-02-01T01:27:52;65299.19;;;1.26;100.00
37132;BME280;23035;50.032;21.978;2023-02-01T01:32:56;65296.00;;;1.23;100.00
37132;BME280;23035;50.032;21.978;2023-02-01T01:38:02;65310.69;;;1.32;100.00
37132;BME280;23035;50.032;21.978;2023-02-01T01:43:13;65283.66;;;1.09;100.00
37132;BME280;23035;50.032;21.978;2023-02-01T01:48:25;65307.59;;;1.32;100.00
37132;BME280;23035;50.032;21.978;2023-02-01T01:53:35;65288.34;;;1.11;100.00
37132;BME280;23035;50.032;21.978;2023-02-01T01:58:42;65294.41;;;1.22;100.00
37132;BME280;23035;50.032;21.978;2023-02-01T02:03:47;65277.81;;;1.03;100.00
37132;BME280;23035;50.032;21.978;2023-02-01T02:08:53;65317.50;;;1.36;100.00
37132;BME280;23035;50.032;21.978;2023-02-01T02:13:59;65315.06;;;1.39;100.00
37132;BME280;23035;50.032;21.978;2023-02-01T02:19:28;65329.97;;;1.53;100.00
37132;BME280;23035;50.032;21.978;2023-02-01T02:25:01;65315.59;;;1.39;100.00
37132;BME280;23035;50.032;21.978;2023-02-01T02:30:37;65352.44;;;1.77;100.00
37132;BME280;23035;50.032;21.978;2023-02-01T02:35:51;65315.69;;;1.42;100.00
37132;BME280;23035;50.032;21.978;2023-02-01T02:41:09;65336.34;;;1.59;100.00
37132;BME280;23035;50.032;21.978;2023-02-01T02:46:41;65306.00;;;1.30;100.00
37132;BME280;23035;50.032;21.978;2023-02-01T02:52:13;65315.59;;;1.39;100.00
37132;BME280;23035;50.032;21.978;2023-02-01T02:57:40;65301.66;;;1.24;100.00
37132;BME280;23035;50.032;21.978;2023-02-01T03:03:04;65310.78;;;1.35;100.00
37132;BME280;23035;50.032;21.978;2023-02-01T03:08:29;65318.88;;;1.45;100.00
37132;BME280;23035;50.032;21.978;2023-02-01T03:13:38;65323.78;;;1.52;100.00
37132;BME280;23035;50.032;21.978;2023-02-01T03:18:51;65349.66;;;1.72;100.00
37132;BME280;23035;50.032;21.978;2023-02-01T03:24:03;65351.34;;;1.76;100.00
37132;BME280;23035;50.032;21.978;2023-02-01T03:29:13;65353.50;;;1.78;100.00
37132;BME280;23035;50.032;21.978;2023-02-01T03:34:21;65368.09;;;1.85;100.00
37132;BME280;23035;50.032;21.978;2023-02-01T03:39:32;65343.91;;;1.69;100.00
37132;BME280;23035;50.032;21.978;2023-02-01T03:44:41;65361.38;;;1.83;100.00
37132;BME280;23035;50.032;21.978;2023-02-01T03:49:52;65356.59;;;1.79;100.00
37132;BME280;23035;50.032;21.978;2023-02-01T03:55:00;65351.69;;;1.71;100.00
37132;BME280;23035;50.032;21.978;2023-02-01T04:00:07;65290.69;;;1.18;100.00
37132;BME280;23035;50.032;21.978;2023-02-01T04:05:15;65301.88;;;1.29;100.00
37132;BME280;23035;50.032;21.978;2023-02-01T04:10:43;65296.22;;;1.16;100.00
37132;BME280;23035;50.032;21.978;2023-02-01T04:15:47;65297.50;;;1.22;100.00
37132;BME280;23035;50.032;21.978;2023-02-01T04:20:53;65299.00;;;1.21;100.00
37132;BME280;23035;50.032;21.978;2023-02-01T04:26:04;65296.00;;;1.23;100.00
37132;BME280;23035;50.032;21.978;2023-02-01T04:31:08;65297.28;;;1.17;100.00
37132;BME280;23035;50.032;21.978;2023-02-01T04:36:14;65320.91;;;1.44;100.00
37132;BME280;23035;50.032;21.978;2023-02-01T04:41:23;65309.63;;;1.31;100.00
37132;BME280;23035;50.032;21.978;2023-02-01T04:46:28;65343.91;;;1.69;100.00
37132;BME280;23035;50.032;21.978;2023-02-01T04:51:33;65330.59;;;1.56;100.00
37132;BME280;23035;50.032;21.978;2023-02-01T04:56:39;65373.50;;;1.92;100.00
37132;BME280;23035;50.032;21.978;2023-02-01T05:01:43;65361.91;;;1.84;100.00
37132;BME280;23035;50.032;21.978;2023-02-01T05:06:50;65375.63;;;1.94;100.00
37132;BME280;23035;50.032;21.978;2023-02-01T05:11:56;65392.06;;;2.08;100.00
37132;BME280;23035;50.032;21.978;2023-02-01T05:17:18;65358.19;;;1.80;100.00
37132;BME280;23035;50.032;21.978;2023-02-01T05:22:23;65378.94;;;2.00;100.00
37132;BME280;23035;50.032;21.978;2023-02-01T05:27:31;65360.75;;;1.80;100.00
37132;BME280;23035;50.032;21.978;2023-02-01T05:32:35;65331.13;;;1.57;100.00
37132;BME280;23035;50.032;21.978;2023-02-01T05:37:40;65334.13;;;1.55;100.00
37132;BME280;23035;50.032;21.978;2023-02-01T05:42:46;65346.88;;;1.67;100.00
37132;BME280;23035;50.032;21.978;2023-02-01T05:47:50;65366.06;;;1.85;100.00
37132;BME280;23035;50.032;21.978;2023-02-01T05:52:55;65334.31;;;1.60;100.00
37132;BME280;23035;50.032;21.978;2023-02-01T05:58:01;65341.13;;;1.64;100.00
37132;BME280;23035;50.032;21.978;2023-02-01T06:03:06;65352.13;;;1.69;100.00
37132;BME280;23035;50.032;21.978;2023-02-01T06:08:11;65323.16;;;1.49;100.00
37132;BME280;23035;50.032;21.978;2023-02-01T06:13:17;65341.13;;;1.64;100.00
37132;BME280;23035;50.032;21.978;2023-02-01T06:18:23;65364.91;;;1.82;100.00
37132;BME280;23035;50.032;21.978;2023-02-01T06:23:28;65354.34;;;1.74;100.00
37132;BME280;23035;50.032;21.978;2023-02-01T06:28:35;65364.91;;;1.82;100.00
37132;BME280;23035;50.032;21.978;2023-02-01T06:33:39;65341.22;;;1.66;100.00
37132;BME280;23035;50.032;21.978;2023-02-01T06:38:58;65360.41;;;1.85;100.00
37132;BME280;23035;50.032;21.978;2023-02-01T06:44:05;65378.84;;;1.97;100.00
37132;BME280;23035;50.032;21.978;2023-02-01T06:49:10;65345.41;;;1.68;100.00
37132;BME280;23035;50.032;21.978;2023-02-01T06:54:15;65364.03;;;1.86;100.00
37132;BME280;23035;50.032;21.978;2023-02-01T06:59:21;65372.13;;;1.96;100.00
37132;BME280;23035;50.032;21.978;2023-02-01T07:04:26;65372.03;;;1.93;100.00
37132;BME280;23035;50.032;21.978;2023-02-01T07:09:31;65394.38;;;2.15;100.00
37132;BME280;23035;50.032;21.978;2023-02-01T07:14:37;65399.63;;;2.17;100.00
37132;BME280;23035;50.032;21.978;2023-02-01T07:19:42;65419.88;;;2.37;100.00
37132;BME280;23035;50.032;21.978;2023-02-01T07:24:49;65451.28;;;2.67;100.00
37132;BME280;23035;50.032;21.978;2023-02-01T07:29:55;65386.28;;;2.05;100.00
37132;BME280;23035;50.032;21.978;2023-02-01T07:34:59;65427.84;;;2.44;100.00
37132;BME280;23035;50.032;21.978;2023-02-01T07:40:05;65440.31;;;2.61;100.00
37132;BME280;23035;50.032;21.978;2023-02-01T07:45:11;65419.44;;;2.39;100.00
37132;BME280;23035;50.032;21.978;2023-02-01T07:50:28;65433.19;;;2.49;100.00
37132;BME280;23035;50.032;21.978;2023-02-01T07:55:33;65427.84;;;2.44;100.00
37132;BME280;23035;50.032;21.978;2023-02-01T08:00:41;65447.13;;;2.65;100.00
37132;BME280;23035;50.032;21.978;2023-02-01T08:06:03;65418.78;;;2.36;100.00
37132;BME280;23035;50.032;21.978;2023-02-01T08:11:09;65424.75;;;2.44;100.00
37132;BME280;23035;50.032;21.978;2023-02-01T08:16:17;65418.78;;;2.36;100.00
37132;BME280;23035;50.032;21.978;2023-02-01T08:21:24;65398.66;;;2.19;100.00
37132;BME280;23035;50.032;21.978;2023-02-01T08:26:28;65411.34;;;2.28;100.00
37132;BME280;23035;50.032;21.978;2023-02-01T08:31:34;65406.09;;;2.26;100.00
37132;BME280;23035;50.032;21.978;2023-02-01T08:36:39;65447.03;;;2.63;100.00
37132;BME280;23035;50.032;21.978;2023-02-01T08:41:45;65453.50;;;2.71;100.00
37132;BME280;23035;50.032;21.978;2023-02-01T08:47:13;65445.53;;;2.64;100.00
37132;BME280;23035;50.032;21.978;2023-02-01T08:52:17;65459.91;;;2.77;100.00
37132;BME280;23035;50.032;21.978;2023-02-01T08:57:22;65474.19;;;2.88;100.00
37132;BME280;23035;50.032;21.978;2023-02-01T09:02:29;65472.59;;;2.87;100.00
37132;BME280;23035;50.032;21.978;2023-02-01T09:07:34;65493.06;;;3.11;100.00
37132;BME280;23035;50.032;21.978;2023-02-01T09:12:39;65473.22;;;2.90;100.00
37132;BME280;23035;50.032;21.978;2023-02-01T09:17:45;65521.22;;;3.36;100.00
37132;BME280;23035;50.032;21.978;2023-02-01T09:22:50;65508.53;;;3.26;100.00
37132;BME280;23035;50.032;21.978;2023-02-01T09:27:55;65524.84;;;3.37;100.00
37132;BME280;23035;50.032;21.978;2023-02-01T09:33:01;65512.78;;;3.30;100.00
37132;BME280;23035;50.032;21.978;2023-02-01T09:38:06;65493.41;;;3.07;100.00
37132;BME280;23035;50.032;21.978;2023-02-01T09:43:19;65451.50;;;2.72;100.00
37132;BME280;23035;50.032;21.978;2023-02-01T09:48:30;65427.22;;;2.41;100.00
37132;BME280;23035;50.032;21.978;2023-02-01T09:53:39;65418.78;;;2.36;100.00
37132;BME280;23035;50.032;21.978;2023-02-01T09:58:49;65372.44;;;1.91;100.00
37132;BME280;23035;50.032;21.978;2023-02-01T10:04:02;65428.38;;;2.45;100.00
37132;BME280;23035;50.032;21.978;2023-02-01T10:09:15;65421.13;;;2.43;100.00
37132;BME280;23035;50.032;21.978;2023-02-01T10:14:45;65489.22;;;3.05;100.00
37132;BME280;23035;50.032;21.978;2023-02-01T10:20:01;65515.66;;;3.38;100.00
37132;BME280;23035;50.032;21.978;2023-02-01T10:25:14;65519.50;;;3.32;100.00
37132;BME280;23035;50.032;21.978;2023-02-01T10:30:24;65529.63;;;3.41;100.00
37132;BME280;23035;50.032;21.978;2023-02-01T10:35:36;65507.34;;;3.23;100.00
37132;BME280;23035;50.032;21.978;2023-02-01T10:40:41;65490.81;;;3.07;100.00
37132;BME280;23035;50.032;21.978;2023-02-01T10:45:46;65514.28;;;3.29;100.00
37132;BME280;23035;50.032;21.978;2023-02-01T10:50:56;65503.09;;;3.19;100.00
37132;BME280;23035;50.032;21.978;2023-02-01T10:56:06;65541.56;;;3.58;100.00
37132;BME280;23035;50.032;21.978;2023-02-01T11:01:17;65601.31;;;4.15;100.00
37132;BME280;23035;50.032;21.978;2023-02-01T11:06:27;65589.47;;;4.01;100.00
37132;BME280;23035;50.032;21.978;2023-02-01T11:11:33;65649.75;;;4.58;100.00
37132;BME280;23035;50.032;21.978;2023-02-01T11:16:58;65657.16;;;4.63;100.00
37132;BME280;23035;50.032;21.978;2023-02-01T11:22:05;65667.38;;;4.75;100.00
37132;BME280;23035;50.032;21.978;2023-02-01T11:27:14;65673.34;;;4.83;100.00
37132;BME280;23035;50.032;21.978;2023-02-01T11:32:30;65605.38;;;4.14;100.00
37132;BME280;23035;50.032;21.978;2023-02-01T11:37:38;65582.44;;;3.92;100.00
37132;BME280;23035;50.032;21.978;2023-02-01T11:42:53;65587.00;;;4.03;100.00
37132;BME280;23035;50.032;21.978;2023-02-01T11:47:59;65561.31;;;3.77;100.00
37132;BME280;23035;50.032;21.978;2023-02-01T11:53:20;65582.44;;;3.92;100.00
37132;BME280;23035;50.032;21.978;2023-02-01T11:58:46;65563.78;;;3.74;100.00
37132;BME280;23035;50.032;21.978;2023-02-01T12:04:22;65520.25;;;3.37;100.00
37132;BME280;23035;50.032;21.978;2023-02-01T12:09:44;65567.06;;;3.80;100.00
37132;BME280;23035;50.032;21.978;2023-02-01T12:15:02;65537.84;;;3.54;100.00
37132;BME280;23035;50.032;21.978;2023-02-01T12:20:20;65553.31;;;3.69;100.00
37132;BME280;23035;50.032;21.978;2023-02-01T12:25:37;65550.44;;;3.61;100.00
37132;BME280;23035;50.032;21.978;2023-02-01T12:31:02;65589.28;;;3.96;100.00
37132;BME280;23035;50.032;21.978;2023-02-01T12:36:18;65589.56;;;4.03;100.00
37132;BME280;23035;50.032;21.978;2023-02-01T12:41:50;65645.38;;;4.52;100.00
37132;BME280;23035;50.032;21.978;2023-02-01T12:46:59;65619.78;;;4.27;100.00
37132;BME280;23035;50.032;21.978;2023-02-01T12:52:10;65688.09;;;4.93;100.00
37132;BME280;23035;50.032;21.978;2023-02-01T12:57:24;65683.91;;;4.91;100.00
37132;BME280;23035;50.032;21.978;2023-02-01T13:02:35;65642.94;;;4.54;100.00
37132;BME280;23035;50.032;21.978;2023-02-01T13:07:48;65645.94;;;4.52;100.00
37132;BME280;23035;50.032;21.978;2023-02-01T13:12:59;65586.38;;;4.00;100.00
37132;BME280;23035;50.032;21.978;2023-02-01T13:18:09;65627.25;;;4.35;100.00
37132;BME280;23035;50.032;21.978;2023-02-01T13:23:23;65612.84;;;4.21;100.00
37132;BME280;23035;50.032;21.978;2023-02-01T13:28:45;65564.84;;;3.75;100.00
37132;BME280;23035;50.032;21.978;2023-02-01T13:34:22;65613.56;;;4.26;100.00
37132;BME280;23035;50.032;21.978;2023-02-01T13:40:06;65647.72;;;4.59;100.00
37132;BME280;23035;50.032;21.978;2023-02-01T13:45:18;65595.88;;;4.07;100.00
37132;BME280;23035;50.032;21.978;2023-02-01T13:50:28;65580.41;;;3.92;100.00
37132;BME280;23035;50.032;21.978;2023-02-01T13:55:36;65599.06;;;4.10;100.00
37132;BME280;23035;50.032;21.978;2023-02-01T14:00:43;65576.75;;;3.91;100.00
37132;BME280;23035;50.032;21.978;2023-02-01T14:06:01;65610.81;;;4.21;100.00
37132;BME280;23035;50.032;21.978;2023-02-01T14:11:33;65609.09;;;4.17;100.00
37132;BME280;23035;50.032;21.978;2023-02-01T14:16:40;65575.16;;;3.90;100.00
37132;BME280;23035;50.032;21.978;2023-02-01T14:21:49;65566.00;;;3.79;100.00
37132;BME280;23035;50.032;21.978;2023-02-01T14:27:15;65544.66;;;3.58;100.00
37132;BME280;23035;50.032;21.978;2023-02-01T14:32:24;65568.03;;;3.78;100.00
37132;BME280;23035;50.032;21.978;2023-02-01T14:37:32;65578.16;;;3.88;100.00
37132;BME280;23035;50.032;21.978;2023-02-01T14:42:43;65551.69;;;3.67;100.00
37132;BME280;23035;50.032;21.978;2023-02-01T14:47:50;65547.88;;;3.61;100.00
37132;BME280;23035;50.032;21.978;2023-02-01T14:53:17;65531.75;;;3.43;100.00
37132;BME280;23035;50.032;21.978;2023-02-01T14:58:31;65539.88;;;3.54;100.00
37132;BME280;23035;50.032;21.978;2023-02-01T15:03:54;65488.78;;;3.07;100.00
37132;BME280;23035;50.032;21.978;2023-02-01T15:09:03;65548.06;;;3.66;100.00
37132;BME280;23035;50.032;21.978;2023-02-01T15:14:14;65525.28;;;3.35;100.00
37132;BME280;23035;50.032;21.978;2023-02-01T15:19:21;65517.28;;;3.27;100.00
37132;BME280;23035;50.032;21.978;2023-02-01T15:24:27;65527.28;;;3.47;100.00
37132;BME280;23035;50.032;21.978;2023-02-01T15:29:32;65535.16;;;3.52;100.00
37132;BME280;23035;50.032;21.978;2023-02-01T15:34:48;65514.28;;;3.29;100.00
37132;BME280;23035;50.032;21.978;2023-02-01T15:40:18;65538.16;;;3.50;100.00
37132;BME280;23035;50.032;21.978;2023-02-01T15:45:26;65516.31;;;3.29;100.00
37132;BME280;23035;50.032;21.978;2023-02-01T15:50:33;65529.63;;;3.41;100.00
37132;BME280;23035;50.032;21.978;2023-02-01T15:55:39;65539.44;;;3.56;100.00
37132;BME280;23035;50.032;21.978;2023-02-01T16:00:47;65527.16;;;3.44;100.00
37132;BME280;23035;50.032;21.978;2023-02-01T16:05:59;65544.03;;;3.55;100.00
37132;BME280;23035;50.032;21.978;2023-02-01T16:11:26;65521.75;;;3.36;100.00
37132;BME280;23035;50.032;21.978;2023-02-01T16:16:33;65520.78;;;3.38;100.00
37132;BME280;23035;50.032;21.978;2023-02-01T16:21:39;65552.13;;;3.65;100.00
37132;BME280;23035;50.032;21.978;2023-02-01T16:26:44;65597.91;;;4.07;100.00
37132;BME280;23035;50.032;21.978;2023-02-01T16:31:49;65581.38;;;3.91;100.00
37132;BME280;23035;50.032;21.978;2023-02-01T16:36:55;65612.31;;;4.20;100.00
37132;BME280;23035;50.032;21.978;2023-02-01T16:42:00;65583.50;;;3.93;100.00
37132;BME280;23035;50.032;21.978;2023-02-01T16:47:12;65587.97;;;4.02;100.00
37132;BME280;23035;50.032;21.978;2023-02-01T16:52:21;65580.94;;;3.93;100.00
37132;BME280;23035;50.032;21.978;2023-02-01T16:57:26;65546.16;;;3.57;100.00
37132;BME280;23035;50.032;21.978;2023-02-01T17:02:32;65474.31;;;2.91;100.00
37132;BME280;23035;50.032;21.978;2023-02-01T17:07:40;65402.28;;;2.20;100.00
37132;BME280;23035;50.032;21.978;2023-02-01T17:12:45;65356.06;;;1.78;100.00
37132;BME280;23035;50.032;21.978;2023-02-01T17:17:50;65406.00;;;2.23;100.00
37132;BME280;23035;50.032;21.978;2023-02-01T17:23:05;65383.19;;;2.04;100.00
37132;BME280;23035;50.032;21.978;2023-02-01T17:28:10;65358.19;;;1.80;100.00
37132;BME280;23035;50.032;21.978;2023-02-01T17:33:21;65334.75;;;1.58;100.00
37132;BME280;23035;50.032;21.978;2023-02-01T17:38:29;65411.44;;;2.31;100.00
37132;BME280;23035;50.032;21.978;2023-02-01T17:43:34;65342.72;;;1.65;100.00
37132;BME280;23035;50.032;21.978;2023-02-01T17:48:39;65426.78;;;2.43;100.00
37132;BME280;23035;50.032;21.978;2023-02-01T17:53:47;65383.09;;;2.01;100.00
37132;BME280;23035;50.032;21.978;2023-02-01T17:58:57;65307.50;;;1.29;100.00
37132;BME280;23035;50.032;21.978;2023-02-01T18:04:11;65368.41;;;1.92;100.00
37132;BME280;23035;50.032;21.978;2023-02-01T18:09:24;65332.09;;;1.55;100.00
37132;BME280;23035;50.032;21.978;2023-02-01T18:19:41;65290.56;;;1.15;100.00
37132;BME280;23035;50.032;21.978;2023-02-01T18:24:51;65306.97;;;1.29;100.00
37132;BME280;23035;50.032;21.978;2023-02-01T18:29:55;65287.59;;;1.05;100.00
37132;BME280;23035;50.032;21.978;2023-02-01T18:35:01;65277.28;;;1.03;100.00
37132;BME280;23035;50.032;21.978;2023-02-01T18:40:11;65302.81;;;1.27;100.00
37132;BME280;23035;50.032;21.978;2023-02-01T18:45:23;65297.59;;;1.25;100.00
37132;BME280;23035;50.032;21.978;2023-02-01T18:50:32;65317.72;;;1.41;100.00
37132;BME280;23035;50.032;21.978;2023-02-01T18:55:38;65315.59;;;1.39;100.00
37132;BME280;23035;50.032;21.978;2023-02-01T19:00:52;65291.09;;;1.16;100.00
37132;BME280;23035;50.032;21.978;2023-02-01T19:05:57;65326.03;;;1.44;100.00
37132;BME280;23035;50.032;21.978;2023-02-01T19:11:06;65348.38;;;1.66;100.00
37132;BME280;23035;50.032;21.978;2023-02-01T19:16:12;65335.19;;;1.56;100.00
37132;BME280;23035;50.032;21.978;2023-02-01T19:21:17;65351.25;;;1.73;100.00
37132;BME280;23035;50.032;21.978;2023-02-01T19:26:23;65335.19;;;1.56;100.00
37132;BME280;23035;50.032;21.978;2023-02-01T19:31:27;65363.50;;;1.85;100.00
37132;BME280;23035;50.032;21.978;2023-02-01T19:36:32;65379.66;;;2.06;100.00
37132;BME280;23035;50.032;21.978;2023-02-01T19:41:45;65375.22;;;1.96;100.00
37132;BME280;23035;50.032;21.978;2023-02-01T19:46:50;65344.13;;;1.62;100.00
37132;BME280;23035;50.032;21.978;2023-02-01T19:51:54;65317.28;;;1.43;100.00
37132;BME280;23035;50.032;21.978;2023-02-01T19:57:01;65326.88;;;1.53;100.00
37132;BME280;23035;50.032;21.978;2023-02-01T20:02:06;65360.00;;;1.75;100.00
37132;BME280;23035;50.032;21.978;2023-02-01T20:07:12;65368.94;;;1.93;100.00
37132;BME280;23035;50.032;21.978;2023-02-01T20:12:19;65322.94;;;1.44;100.00
37132;BME280;23035;50.032;21.978;2023-02-01T20:17:24;65345.28;;;1.65;100.00
37132;BME280;23035;50.032;21.978;2023-02-01T20:22:28;65346.78;;;1.64;100.00
37132;BME280;23035;50.032;21.978;2023-02-01T20:27:35;65341.03;;;1.61;100.00
37132;BME280;23035;50.032;21.978;2023-02-01T20:32:39;65329.88;;;1.51;100.00
37132;BME280;23035;50.032;21.978;2023-02-01T20:37:44;65341.13;;;1.64;100.00
37132;BME280;23035;50.032;21.978;2023-02-01T20:42:50;65357.13;;;1.79;100.00
37132;BME280;23035;50.032;21.978;2023-02-01T20:47:54;65391.19;;;2.12;100.00
37132;BME280;23035;50.032;21.978;2023-02-01T20:53:00;65371.38;;;1.90;100.00
37132;BME280;23035;50.032;21.978;2023-02-01T20:58:06;65378.59;;;2.05;100.00
37132;BME280;23035;50.032;21.978;2023-02-01T21:03:10;65384.78;;;2.06;100.00
37132;BME280;23035;50.032;21.978;2023-02-01T21:08:15;65424.66;;;2.41;100.00
37132;BME280;23035;50.032;21.978;2023-02-01T21:13:21;65356.25;;;1.83;100.00
37132;BME280;23035;50.032;21.978;2023-02-01T21:18:26;65357.66;;;1.80;100.00
37132;BME280;23035;50.032;21.978;2023-02-01T21:23:31;65370.31;;;1.89;100.00
37132;BME280;23035;50.032;21.978;2023-02-01T21:28:37;65371.38;;;1.90;100.00
37132;BME280;23035;50.032;21.978;2023-02-01T21:33:42;65385.31;;;2.06;100.00
37132;BME280;23035;50.032;21.978;2023-02-01T21:38:50;65373.06;;;1.94;100.00
37132;BME280;23035;50.032;21.978;2023-02-01T21:43:58;65375.31;;;1.99;100.00
37132;BME280;23035;50.032;21.978;2023-02-01T21:49:03;65357.75;;;1.82;100.00
37132;BME280;23035;50.032;21.978;2023-02-01T21:54:11;65407.59;;;2.25;100.00
37132;BME280;23035;50.032;21.978;2023-02-01T21:59:17;65368.81;;;1.90;100.00
37132;BME280;23035;50.032;21.978;2023-02-01T22:04:22;65356.59;;;1.79;100.00
37132;BME280;23035;50.032;21.978;2023-02-01T22:09:26;65319.84;;;1.43;100.00
37132;BME280;23035;50.032;21.978;2023-02-01T22:14:32;65350.09;;;1.70;100.00
37132;BME280;23035;50.032;21.978;2023-02-01T22:19:38;65361.91;;;1.84;100.00
37132;BME280;23035;50.032;21.978;2023-02-01T22:24:42;65378.84;;;1.97;100.00
37132;BME280;23035;50.032;21.978;2023-02-01T22:29:48;65414.22;;;2.36;100.00
37132;BME280;23035;50.032;21.978;2023-02-01T22:34:53;65428.91;;;2.45;100.00
37132;BME280;23035;50.032;21.978;2023-02-01T22:39:58;65456.63;;;2.72;100.00
37132;BME280;23035;50.032;21.978;2023-02-01T22:45:06;65476.25;;;2.88;100.00
37132;BME280;23035;50.032;21.978;2023-02-01T22:50:11;65476.44;;;2.93;100.00
37132;BME280;23035;50.032;21.978;2023-02-01T22:55:15;65556.06;;;3.74;100.00
37132;BME280;23035;50.032;21.978;2023-02-01T23:00:21;65534.00;;;3.48;100.00
37132;BME280;23035;50.032;21.978;2023-02-01T23:05:31;65545.72;;;3.59;100.00
37132;BME280;23035;50.032;21.978;2023-02-01T23:10:56;65551.50;;;3.62;100.00
37132;BME280;23035;50.032;21.978;2023-02-01T23:16:05;65590.09;;;4.04;100.00
37132;BME280;23035;50.032;21.978;2023-02-01T23:21:11;65545.19;;;3.59;100.00
37132;BME280;23035;50.032;21.978;2023-02-01T23:26:17;65566.88;;;3.74;100.00
37132;BME280;23035;50.032;21.978;2023-02-01T23:31:24;65510.66;;;3.28;100.00
37132;BME280;23035;50.032;21.978;2023-02-01T23:36:29;65580.31;;;3.90;100.00
37132;BME280;23035;50.032;21.978;2023-02-01T23:41:36;65601.84;;;4.15;100.00
37132;BME280;23035;50.032;21.978;2023-02-01T23:46:45;65594.28;;;4.06;100.00
37132;BME280;23035;50.032;21.978;2023-02-01T23:51:50;65529.31;;;3.46;100.00
37132;BME280;23035;50.032;21.978;2023-02-01T23:56:55;65585.28;;;3.99;100.00
